sensor_id;sensor_type;location;lat;lon;timestamp;P1;durP1;ratioP1;P2;durP2;ratioP2
64367;SDS011;50692;53.314;-6.300;2023-02-19T00:00:18;1.90;;;1.07;;
64367;SDS011;50692;53.314;-6.300;2023-02-19T00:03:04;3.57;;;1.43;;
64367;SDS011;50692;53.314;-6.300;2023-02-19T00:05:50;2.77;;;1.20;;
64367;SDS011;50692;53.314;-6.300;2023-02-19T00:08:37;5.00;;;1.13;;
64367;SDS011;50692;53.314;-6.300;2023-02-19T00:11:24;3.97;;;1.37;;
64367;SDS011;50692;53.314;-6.300;2023-02-19T00:14:15;4.63;;;1.90;;
64367;SDS011;50692;53.314;-6.300;2023-02-19T00:17:03;1.90;;;1.40;;
64367;SDS011;50692;53.314;-6.300;2023-02-19T00:19:49;4.80;;;1.77;;
64367;SDS011;50692;53.314;-6.300;2023-02-19T00:22:35;3.63;;;1.40;;
64367;SDS011;50692;53.314;-6.300;2023-02-19T00:25:21;7.57;;;1.93;;
64367;SDS011;50692;53.314;-6.300;2023-02-19T00:28:06;4.27;;;1.60;;
64367;SDS011;50692;53.314;-6.300;2023-02-19T00:30:52;4.40;;;1.47;;
64367;SDS011;50692;53.314;-6.300;2023-02-19T00:33:38;3.00;;;1.40;;
64367;SDS011;50692;53.314;-6.300;2023-02-19T00:36:25;6.07;;;1.50;;
64367;SDS011;50692;53.314;-6.300;2023-02-19T00:39:13;5.37;;;1.53;;
64367;SDS011;50692;53.314;-6.300;2023-02-19T00:42:00;5.50;;;1.93;;
64367;SDS011;50692;53.314;-6.300;2023-02-19T00:44:46;3.50;;;1.30;;
64367;SDS011;50692;53.314;-6.300;2023-02-19T00:47:32;3.57;;;1.50;;
64367;SDS011;50692;53.314;-6.300;2023-02-19T00:50:18;2.20;;;1.30;;
64367;SDS011;50692;53.314;-6.300;2023-02-19T00:53:03;5.13;;;2.27;;
64367;SDS011;50692;53.314;-6.300;2023-02-19T00:55:49;5.57;;;1.23;;
64367;SDS011;50692;53.314;-6.300;2023-02-19T00:58:35;3.10;;;1.30;;
64367;SDS011;50692;53.314;-6.300;2023-02-19T01:01:21;5.50;;;1.37;;
64367;SDS011;50692;53.314;-6.300;2023-02-19T01:04:07;2.97;;;1.30;;
64367;SDS011;50692;53.314;-6.300;2023-02-19T01:06:52;3.90;;;1.60;;
64367;SDS011;50692;53.314;-6.300;2023-02-19T01:09:38;5.37;;;1.60;;
64367;SDS011;50692;53.314;-6.300;2023-02-19T01:12:24;5.43;;;1.93;;
64367;SDS011;50692;53.314;-6.300;2023-02-19T01:15:10;5.90;;;2.00;;
64367;SDS011;50692;53.314;-6.300;2023-02-19T01:17:56;4.30;;;1.53;;
64367;SDS011;50692;53.314;-6.300;2023-02-19T01:20:43;5.27;;;2.10;;
64367;SDS011;50692;53.314;-6.300;2023-02-19T01:23:29;3.27;;;1.40;;
64367;SDS011;50692;53.314;-6.300;2023-02-19T01:26:19;4.47;;;1.73;;
64367;SDS011;50692;53.314;-6.300;2023-02-19T01:29:07;2.87;;;1.60;;
64367;SDS011;50692;53.314;-6.300;2023-02-19T01:31:53;4.93;;;1.50;;
64367;SDS011;50692;53.314;-6.300;2023-02-19T01:34:39;3.20;;;1.33;;
64367;SDS011;50692;53.314;-6.300;2023-02-19T01:37:25;3.50;;;1.47;;
64367;SDS011;50692;53.314;-6.300;2023-02-19T01:40:11;5.03;;;1.50;;
64367;SDS011;50692;53.314;-6.300;2023-02-19T01:42:57;6.63;;;2.20;;
64367;SDS011;50692;53.314;-6.300;2023-02-19T01:45:43;3.40;;;1.30;;
64367;SDS011;50692;53.314;-6.300;2023-02-19T01:48:31;3.20;;;1.50;;
64367;SDS011;50692;53.314;-6.300;2023-02-19T01:51:21;5.80;;;1.67;;
64367;SDS011;50692;53.314;-6.300;2023-02-19T01:54:07;3.30;;;1.90;;
64367;SDS011;50692;53.314;-6.300;2023-02-19T01:56:56;4.97;;;1.53;;
64367;SDS011;50692;53.314;-6.300;2023-02-19T01:59:44;3.90;;;1.37;;
64367;SDS011;50692;53.314;-6.300;2023-02-19T02:02:31;6.17;;;1.73;;
64367;SDS011;50692;53.314;-6.300;2023-02-19T02:08:28;2.77;;;1.43;;
64367;SDS011;50692;53.314;-6.300;2023-02-19T02:11:34;4.67;;;1.67;;
64367;SDS011;50692;53.314;-6.300;2023-02-19T02:14:21;4.30;;;1.53;;
64367;SDS011;50692;53.314;-6.300;2023-02-19T02:17:15;4.40;;;1.70;;
64367;SDS011;50692;53.314;-6.300;2023-02-19T02:26:58;4.10;;;1.40;;
64367;SDS011;50692;53.314;-6.300;2023-02-19T02:33:11;1.93;;;1.20;;
64367;SDS011;50692;53.314;-6.300;2023-02-19T02:36:16;5.38;;;1.50;;
64367;SDS011;50692;53.314;-6.300;2023-02-19T02:39:06;2.17;;;1.23;;
64367;SDS011;50692;53.314;-6.300;2023-02-19T02:42:01;2.90;;;1.30;;
64367;SDS011;50692;53.314;-6.300;2023-02-19T02:45:26;4.97;;;1.37;;
64367;SDS011;50692;53.314;-6.300;2023-02-19T02:48:23;3.03;;;1.50;;
64367;SDS011;50692;53.314;-6.300;2023-02-19T02:51:29;3.37;;;1.30;;
64367;SDS011;50692;53.314;-6.300;2023-02-19T02:54:23;3.30;;;1.23;;
64367;SDS011;50692;53.314;-6.300;2023-02-19T02:57:31;4.00;;;1.47;;
64367;SDS011;50692;53.314;-6.300;2023-02-19T03:00:18;5.47;;;1.40;;
64367;SDS011;50692;53.314;-6.300;2023-02-19T03:03:05;5.13;;;1.70;;
64367;SDS011;50692;53.314;-6.300;2023-02-19T03:05:53;2.53;;;1.10;;
64367;SDS011;50692;53.314;-6.300;2023-02-19T03:08:48;5.10;;;1.57;;
64367;SDS011;50692;53.314;-6.300;2023-02-19T03:11:58;2.83;;;1.10;;
64367;SDS011;50692;53.314;-6.300;2023-02-19T03:15:07;3.05;;;2.10;;
64367;SDS011;50692;53.314;-6.300;2023-02-19T03:18:14;4.20;;;1.30;;
64367;SDS011;50692;53.314;-6.300;2023-02-19T03:21:22;3.93;;;1.60;;
64367;SDS011;50692;53.314;-6.300;2023-02-19T03:24:10;6.50;;;1.90;;
64367;SDS011;50692;53.314;-6.300;2023-02-19T03:27:17;4.10;;;1.43;;
64367;SDS011;50692;53.314;-6.300;2023-02-19T03:30:10;5.73;;;1.77;;
64367;SDS011;50692;53.314;-6.300;2023-02-19T03:36:10;3.47;;;1.37;;
64367;SDS011;50692;53.314;-6.300;2023-02-19T03:39:02;2.83;;;1.52;;
64367;SDS011;50692;53.314;-6.300;2023-02-19T03:42:01;2.50;;;1.33;;
64367;SDS011;50692;53.314;-6.300;2023-02-19T03:48:18;3.17;;;1.90;;
64367;SDS011;50692;53.314;-6.300;2023-02-19T03:54:19;3.30;;;1.63;;
64367;SDS011;50692;53.314;-6.300;2023-02-19T04:03:45;4.03;;;1.20;;
64367;SDS011;50692;53.314;-6.300;2023-02-19T04:06:36;4.80;;;1.67;;
64367;SDS011;50692;53.314;-6.300;2023-02-19T04:09:29;5.13;;;1.50;;
64367;SDS011;50692;53.314;-6.300;2023-02-19T04:12:22;6.13;;;1.30;;
64367;SDS011;50692;53.314;-6.300;2023-02-19T04:15:13;3.80;;;1.13;;
64367;SDS011;50692;53.314;-6.300;2023-02-19T04:18:06;5.57;;;1.33;;
64367;SDS011;50692;53.314;-6.300;2023-02-19T04:20:55;2.90;;;1.10;;
64367;SDS011;50692;53.314;-6.300;2023-02-19T04:23:44;5.13;;;1.10;;
64367;SDS011;50692;53.314;-6.300;2023-02-19T04:26:31;4.00;;;1.40;;
64367;SDS011;50692;53.314;-6.300;2023-02-19T04:29:18;4.37;;;1.10;;
64367;SDS011;50692;53.314;-6.300;2023-02-19T04:32:03;3.27;;;1.20;;
64367;SDS011;50692;53.314;-6.300;2023-02-19T04:34:49;3.13;;;1.37;;
64367;SDS011;50692;53.314;-6.300;2023-02-19T04:37:37;3.30;;;1.00;;
64367;SDS011;50692;53.314;-6.300;2023-02-19T04:40:23;4.80;;;1.30;;
64367;SDS011;50692;53.314;-6.300;2023-02-19T04:43:09;3.97;;;1.10;;
64367;SDS011;50692;53.314;-6.300;2023-02-19T04:46:00;1.77;;;0.87;;
64367;SDS011;50692;53.314;-6.300;2023-02-19T04:48:46;4.67;;;1.10;;
64367;SDS011;50692;53.314;-6.300;2023-02-19T04:51:39;6.13;;;1.47;;
64367;SDS011;50692;53.314;-6.300;2023-02-19T04:54:25;5.70;;;1.43;;
64367;SDS011;50692;53.314;-6.300;2023-02-19T04:57:11;4.20;;;1.40;;
64367;SDS011;50692;53.314;-6.300;2023-02-19T04:59:57;6.43;;;1.53;;
64367;SDS011;50692;53.314;-6.300;2023-02-19T05:02:43;3.57;;;1.40;;
64367;SDS011;50692;53.314;-6.300;2023-02-19T05:05:50;4.80;;;1.43;;
64367;SDS011;50692;53.314;-6.300;2023-02-19T05:08:36;3.83;;;1.43;;
64367;SDS011;50692;53.314;-6.300;2023-02-19T05:11:22;3.60;;;1.20;;
64367;SDS011;50692;53.314;-6.300;2023-02-19T05:14:08;3.33;;;1.50;;
64367;SDS011;50692;53.314;-6.300;2023-02-19T05:16:55;5.07;;;1.83;;
64367;SDS011;50692;53.314;-6.300;2023-02-19T05:19:41;6.40;;;1.43;;
64367;SDS011;50692;53.314;-6.300;2023-02-19T05:22:27;2.47;;;1.10;;
64367;SDS011;50692;53.314;-6.300;2023-02-19T05:25:14;4.57;;;1.47;;
64367;SDS011;50692;53.314;-6.300;2023-02-19T05:28:00;2.10;;;1.20;;
64367;SDS011;50692;53.314;-6.300;2023-02-19T05:31:05;4.87;;;1.70;;
64367;SDS011;50692;53.314;-6.300;2023-02-19T05:33:55;2.40;;;1.50;;
64367;SDS011;50692;53.314;-6.300;2023-02-19T05:36:41;3.72;;;1.33;;
64367;SDS011;50692;53.314;-6.300;2023-02-19T05:39:29;6.80;;;1.50;;
64367;SDS011;50692;53.314;-6.300;2023-02-19T05:42:15;6.57;;;1.30;;
64367;SDS011;50692;53.314;-6.300;2023-02-19T05:45:01;4.50;;;1.50;;
64367;SDS011;50692;53.314;-6.300;2023-02-19T05:47:47;4.90;;;1.73;;
64367;SDS011;50692;53.314;-6.300;2023-02-19T05:50:35;3.37;;;1.70;;
64367;SDS011;50692;53.314;-6.300;2023-02-19T05:53:21;4.60;;;1.87;;
64367;SDS011;50692;53.314;-6.300;2023-02-19T05:59:17;3.83;;;1.30;;
64367;SDS011;50692;53.314;-6.300;2023-02-19T06:02:07;3.07;;;1.87;;
64367;SDS011;50692;53.314;-6.300;2023-02-19T06:04:54;4.37;;;1.40;;
64367;SDS011;50692;53.314;-6.300;2023-02-19T06:07:40;3.50;;;1.60;;
64367;SDS011;50692;53.314;-6.300;2023-02-19T06:10:27;3.30;;;1.40;;
64367;SDS011;50692;53.314;-6.300;2023-02-19T06:13:13;3.07;;;1.40;;
64367;SDS011;50692;53.314;-6.300;2023-02-19T06:15:58;2.80;;;1.30;;
64367;SDS011;50692;53.314;-6.300;2023-02-19T06:18:46;2.70;;;1.57;;
64367;SDS011;50692;53.314;-6.300;2023-02-19T06:21:34;3.50;;;1.40;;
64367;SDS011;50692;53.314;-6.300;2023-02-19T06:24:20;2.50;;;1.50;;
64367;SDS011;50692;53.314;-6.300;2023-02-19T06:27:06;2.53;;;1.03;;
64367;SDS011;50692;53.314;-6.300;2023-02-19T06:29:52;1.43;;;0.80;;
64367;SDS011;50692;53.314;-6.300;2023-02-19T06:32:40;2.93;;;0.90;;
64367;SDS011;50692;53.314;-6.300;2023-02-19T06:35:25;1.70;;;0.77;;
64367;SDS011;50692;53.314;-6.300;2023-02-19T06:38:11;0.70;;;0.70;;
64367;SDS011;50692;53.314;-6.300;2023-02-19T06:41:00;1.37;;;0.80;;
64367;SDS011;50692;53.314;-6.300;2023-02-19T06:43:49;1.20;;;0.43;;
64367;SDS011;50692;53.314;-6.300;2023-02-19T06:46:35;1.23;;;0.50;;
64367;SDS011;50692;53.314;-6.300;2023-02-19T06:49:21;2.03;;;0.77;;
64367;SDS011;50692;53.314;-6.300;2023-02-19T06:52:07;1.40;;;0.60;;
64367;SDS011;50692;53.314;-6.300;2023-02-19T06:54:53;1.97;;;0.53;;
64367;SDS011;50692;53.314;-6.300;2023-02-19T06:57:38;0.90;;;0.50;;
64367;SDS011;50692;53.314;-6.300;2023-02-19T07:00:24;0.53;;;0.53;;
64367;SDS011;50692;53.314;-6.300;2023-02-19T07:03:12;2.40;;;0.67;;
64367;SDS011;50692;53.314;-6.300;2023-02-19T07:05:58;0.93;;;0.63;;
64367;SDS011;50692;53.314;-6.300;2023-02-19T07:08:46;0.90;;;0.60;;
64367;SDS011;50692;53.314;-6.300;2023-02-19T07:11:33;1.20;;;0.50;;
64367;SDS011;50692;53.314;-6.300;2023-02-19T07:14:22;0.98;;;0.45;;
64367;SDS011;50692;53.314;-6.300;2023-02-19T07:17:08;1.63;;;0.60;;
64367;SDS011;50692;53.314;-6.300;2023-02-19T07:19:53;1.97;;;0.70;;
64367;SDS011;50692;53.314;-6.300;2023-02-19T07:22:39;2.50;;;0.60;;
64367;SDS011;50692;53.314;-6.300;2023-02-19T07:25:26;1.30;;;0.57;;
64367;SDS011;50692;53.314;-6.300;2023-02-19T07:28:20;0.90;;;0.50;;
64367;SDS011;50692;53.314;-6.300;2023-02-19T07:31:07;0.37;;;0.37;;
64367;SDS011;50692;53.314;-6.300;2023-02-19T07:33:53;2.27;;;0.70;;
64367;SDS011;50692;53.314;-6.300;2023-02-19T07:36:39;0.50;;;0.50;;
64367;SDS011;50692;53.314;-6.300;2023-02-19T07:39:25;0.50;;;0.50;;
64367;SDS011;50692;53.314;-6.300;2023-02-19T07:42:11;0.47;;;0.40;;
64367;SDS011;50692;53.314;-6.300;2023-02-19T07:44:57;1.07;;;0.67;;
64367;SDS011;50692;53.314;-6.300;2023-02-19T07:47:43;0.60;;;0.50;;
64367;SDS011;50692;53.314;-6.300;2023-02-19T07:50:29;0.40;;;0.40;;
64367;SDS011;50692;53.314;-6.300;2023-02-19T07:53:15;0.43;;;0.43;;
64367;SDS011;50692;53.314;-6.300;2023-02-19T07:56:02;1.77;;;0.47;;
64367;SDS011;50692;53.314;-6.300;2023-02-19T07:58:53;0.83;;;0.60;;
64367;SDS011;50692;53.314;-6.300;2023-02-19T08:01:41;1.33;;;0.50;;
64367;SDS011;50692;53.314;-6.300;2023-02-19T08:04:48;0.60;;;0.60;;
64367;SDS011;50692;53.314;-6.300;2023-02-19T08:07:35;1.35;;;0.50;;
64367;SDS011;50692;53.314;-6.300;2023-02-19T08:10:23;0.47;;;0.40;;
64367;SDS011;50692;53.314;-6.300;2023-02-19T08:13:28;0.40;;;0.40;;
64367;SDS011;50692;53.314;-6.300;2023-02-19T08:16:22;0.63;;;0.40;;
64367;SDS011;50692;53.314;-6.300;2023-02-19T08:19:08;0.50;;;0.40;;
64367;SDS011;50692;53.314;-6.300;2023-02-19T08:21:54;0.97;;;0.43;;
64367;SDS011;50692;53.314;-6.300;2023-02-19T08:24:41;0.83;;;0.53;;
64367;SDS011;50692;53.314;-6.300;2023-02-19T08:27:27;0.40;;;0.30;;
64367;SDS011;50692;53.314;-6.300;2023-02-19T08:30:13;1.13;;;0.40;;
64367;SDS011;50692;53.314;-6.300;2023-02-19T08:33:00;0.80;;;0.40;;
64367;SDS011;50692;53.314;-6.300;2023-02-19T08:35:46;1.13;;;0.37;;
64367;SDS011;50692;53.314;-6.300;2023-02-19T08:38:33;1.07;;;0.47;;
64367;SDS011;50692;53.314;-6.300;2023-02-19T08:41:21;0.87;;;0.53;;
64367;SDS011;50692;53.314;-6.300;2023-02-19T08:44:08;0.43;;;0.43;;
64367;SDS011;50692;53.314;-6.300;2023-02-19T08:46:54;1.77;;;0.50;;
64367;SDS011;50692;53.314;-6.300;2023-02-19T08:49:40;0.53;;;0.53;;
64367;SDS011;50692;53.314;-6.300;2023-02-19T08:52:26;0.47;;;0.47;;
64367;SDS011;50692;53.314;-6.300;2023-02-19T08:55:13;0.43;;;0.43;;
64367;SDS011;50692;53.314;-6.300;2023-02-19T08:57:59;0.60;;;0.50;;
64367;SDS011;50692;53.314;-6.300;2023-02-19T09:00:47;0.60;;;0.60;;
64367;SDS011;50692;53.314;-6.300;2023-02-19T09:03:55;0.30;;;0.30;;
64367;SDS011;50692;53.314;-6.300;2023-02-19T09:06:52;0.40;;;0.40;;
64367;SDS011;50692;53.314;-6.300;2023-02-19T09:09:52;0.47;;;0.47;;
64367;SDS011;50692;53.314;-6.300;2023-02-19T09:12:40;1.80;;;0.60;;
64367;SDS011;50692;53.314;-6.300;2023-02-19T09:15:26;1.07;;;0.47;;
64367;SDS011;50692;53.314;-6.300;2023-02-19T09:18:13;0.50;;;0.50;;
64367;SDS011;50692;53.314;-6.300;2023-02-19T09:21:03;1.02;;;0.90;;
64367;SDS011;50692;53.314;-6.300;2023-02-19T09:23:51;2.57;;;0.70;;
64367;SDS011;50692;53.314;-6.300;2023-02-19T09:26:38;0.93;;;0.80;;
64367;SDS011;50692;53.314;-6.300;2023-02-19T09:29:25;1.00;;;0.70;;
64367;SDS011;50692;53.314;-6.300;2023-02-19T09:32:12;0.70;;;0.50;;
64367;SDS011;50692;53.314;-6.300;2023-02-19T09:34:58;1.20;;;0.50;;
64367;SDS011;50692;53.314;-6.300;2023-02-19T09:37:44;1.03;;;0.60;;
64367;SDS011;50692;53.314;-6.300;2023-02-19T09:40:30;0.50;;;0.50;;
64367;SDS011;50692;53.314;-6.300;2023-02-19T09:43:19;0.67;;;0.60;;
64367;SDS011;50692;53.314;-6.300;2023-02-19T09:46:21;0.40;;;0.40;;
64367;SDS011;50692;53.314;-6.300;2023-02-19T09:49:20;0.50;;;0.40;;
64367;SDS011;50692;53.314;-6.300;2023-02-19T09:52:17;0.57;;;0.50;;
64367;SDS011;50692;53.314;-6.300;2023-02-19T09:55:26;0.53;;;0.50;;
64367;SDS011;50692;53.314;-6.300;2023-02-19T10:01:31;0.60;;;0.40;;
64367;SDS011;50692;53.314;-6.300;2023-02-19T10:04:23;0.93;;;0.40;;
64367;SDS011;50692;53.314;-6.300;2023-02-19T10:07:20;0.40;;;0.30;;
64367;SDS011;50692;53.314;-6.300;2023-02-19T10:13:23;0.30;;;0.30;;
64367;SDS011;50692;53.314;-6.300;2023-02-19T10:16:18;0.77;;;0.60;;
64367;SDS011;50692;53.314;-6.300;2023-02-19T10:19:09;1.70;;;0.73;;
64367;SDS011;50692;53.314;-6.300;2023-02-19T10:22:00;1.67;;;0.70;;
64367;SDS011;50692;53.314;-6.300;2023-02-19T10:24:56;0.53;;;0.53;;
64367;SDS011;50692;53.314;-6.300;2023-02-19T10:27:43;1.53;;;0.60;;
64367;SDS011;50692;53.314;-6.300;2023-02-19T10:30:31;1.50;;;0.50;;
64367;SDS011;50692;53.314;-6.300;2023-02-19T10:33:19;1.23;;;0.70;;
64367;SDS011;50692;53.314;-6.300;2023-02-19T10:36:09;1.20;;;0.50;;
64367;SDS011;50692;53.314;-6.300;2023-02-19T10:42:08;1.33;;;0.43;;
64367;SDS011;50692;53.314;-6.300;2023-02-19T10:44:59;1.27;;;0.60;;
64367;SDS011;50692;53.314;-6.300;2023-02-19T10:47:48;1.15;;;0.70;;
64367;SDS011;50692;53.314;-6.300;2023-02-19T10:50:35;2.60;;;0.70;;
64367;SDS011;50692;53.314;-6.300;2023-02-19T10:53:39;2.03;;;0.50;;
64367;SDS011;50692;53.314;-6.300;2023-02-19T10:56:27;1.57;;;0.70;;
64367;SDS011;50692;53.314;-6.300;2023-02-19T11:05:01;2.67;;;0.80;;
64367;SDS011;50692;53.314;-6.300;2023-02-19T11:07:54;2.60;;;0.50;;
64367;SDS011;50692;53.314;-6.300;2023-02-19T11:10:41;2.30;;;1.00;;
64367;SDS011;50692;53.314;-6.300;2023-02-19T11:13:30;1.00;;;0.60;;
64367;SDS011;50692;53.314;-6.300;2023-02-19T11:16:17;1.27;;;0.60;;
64367;SDS011;50692;53.314;-6.300;2023-02-19T11:19:40;2.40;;;0.70;;
64367;SDS011;50692;53.314;-6.300;2023-02-19T11:22:30;1.50;;;0.73;;
64367;SDS011;50692;53.314;-6.300;2023-02-19T11:25:21;0.70;;;0.57;;
64367;SDS011;50692;53.314;-6.300;2023-02-19T11:31:29;2.80;;;0.70;;
64367;SDS011;50692;53.314;-6.300;2023-02-19T11:40:34;3.13;;;0.70;;
64367;SDS011;50692;53.314;-6.300;2023-02-19T11:50:32;2.20;;;0.80;;
64367;SDS011;50692;53.314;-6.300;2023-02-19T11:53:24;1.50;;;0.70;;
64367;SDS011;50692;53.314;-6.300;2023-02-19T11:56:22;1.30;;;0.60;;
64367;SDS011;50692;53.314;-6.300;2023-02-19T12:09:09;1.40;;;0.63;;
64367;SDS011;50692;53.314;-6.300;2023-02-19T12:19:10;2.67;;;0.73;;
64367;SDS011;50692;53.314;-6.300;2023-02-19T12:22:32;0.75;;;0.60;;
64367;SDS011;50692;53.314;-6.300;2023-02-19T12:25:48;2.45;;;0.70;;
64367;SDS011;50692;53.314;-6.300;2023-02-19T12:29:15;2.67;;;0.55;;
64367;SDS011;50692;53.314;-6.300;2023-02-19T12:38:20;0.68;;;0.57;;
64367;SDS011;50692;53.314;-6.300;2023-02-19T12:44:30;0.75;;;0.60;;
64367;SDS011;50692;53.314;-6.300;2023-02-19T12:47:38;3.20;;;0.68;;
64367;SDS011;50692;53.314;-6.300;2023-02-19T12:50:28;1.20;;;0.70;;
64367;SDS011;50692;53.314;-6.300;2023-02-19T12:54:04;1.48;;;0.70;;
64367;SDS011;50692;53.314;-6.300;2023-02-19T13:12:39;1.45;;;0.50;;
64367;SDS011;50692;53.314;-6.300;2023-02-19T13:15:33;1.73;;;0.60;;
64367;SDS011;50692;53.314;-6.300;2023-02-19T13:18:25;0.50;;;0.50;;
64367;SDS011;50692;53.314;-6.300;2023-02-19T13:21:29;1.20;;;0.68;;
64367;SDS011;50692;53.314;-6.300;2023-02-19T13:24:37;0.50;;;0.45;;
64367;SDS011;50692;53.314;-6.300;2023-02-19T13:27:42;0.30;;;0.30;;
64367;SDS011;50692;53.314;-6.300;2023-02-19T13:37:17;0.65;;;0.40;;
64367;SDS011;50692;53.314;-6.300;2023-02-19T13:43:20;0.50;;;0.50;;
64367;SDS011;50692;53.314;-6.300;2023-02-19T13:46:14;1.00;;;0.50;;
64367;SDS011;50692;53.314;-6.300;2023-02-19T14:04:43;1.20;;;0.63;;
64367;SDS011;50692;53.314;-6.300;2023-02-19T14:07:34;1.42;;;0.60;;
64367;SDS011;50692;53.314;-6.300;2023-02-19T14:10:53;1.33;;;0.73;;
64367;SDS011;50692;53.314;-6.300;2023-02-19T14:13:59;2.78;;;0.70;;
64367;SDS011;50692;53.314;-6.300;2023-02-19T14:16:51;2.45;;;0.77;;
64367;SDS011;50692;53.314;-6.300;2023-02-19T14:19:53;1.90;;;0.80;;
64367;SDS011;50692;53.314;-6.300;2023-02-19T14:25:59;1.55;;;0.82;;
64367;SDS011;50692;53.314;-6.300;2023-02-19T14:29:03;1.38;;;0.85;;
64367;SDS011;50692;53.314;-6.300;2023-02-19T14:31:53;1.27;;;0.85;;
64367;SDS011;50692;53.314;-6.300;2023-02-19T14:34:39;1.67;;;0.40;;
64367;SDS011;50692;53.314;-6.300;2023-02-19T14:37:29;2.40;;;1.17;;
64367;SDS011;50692;53.314;-6.300;2023-02-19T14:40:26;0.80;;;0.63;;
64367;SDS011;50692;53.314;-6.300;2023-02-19T14:43:18;2.33;;;0.85;;
64367;SDS011;50692;53.314;-6.300;2023-02-19T14:46:08;0.60;;;0.60;;
64367;SDS011;50692;53.314;-6.300;2023-02-19T14:49:12;0.73;;;0.50;;
64367;SDS011;50692;53.314;-6.300;2023-02-19T14:52:03;1.08;;;0.65;;
64367;SDS011;50692;53.314;-6.300;2023-02-19T14:54:55;1.70;;;0.70;;
64367;SDS011;50692;53.314;-6.300;2023-02-19T14:57:43;1.40;;;0.60;;
64367;SDS011;50692;53.314;-6.300;2023-02-19T15:00:40;0.70;;;0.65;;
64367;SDS011;50692;53.314;-6.300;2023-02-19T15:03:28;1.65;;;0.70;;
64367;SDS011;50692;53.314;-6.300;2023-02-19T15:06:19;0.60;;;0.57;;
64367;SDS011;50692;53.314;-6.300;2023-02-19T15:09:07;0.82;;;0.60;;
64367;SDS011;50692;53.314;-6.300;2023-02-19T15:11:53;1.40;;;0.77;;
64367;SDS011;50692;53.314;-6.300;2023-02-19T15:14:41;1.00;;;0.70;;
64367;SDS011;50692;53.314;-6.300;2023-02-19T15:17:29;1.10;;;0.60;;
64367;SDS011;50692;53.314;-6.300;2023-02-19T15:20:18;1.20;;;0.50;;
64367;SDS011;50692;53.314;-6.300;2023-02-19T15:23:10;0.82;;;0.68;;
64367;SDS011;50692;53.314;-6.300;2023-02-19T15:26:11;0.55;;;0.45;;
64367;SDS011;50692;53.314;-6.300;2023-02-19T15:29:12;1.60;;;0.70;;
64367;SDS011;50692;53.314;-6.300;2023-02-19T15:32:00;1.02;;;0.68;;
64367;SDS011;50692;53.314;-6.300;2023-02-19T15:34:57;2.17;;;0.70;;
64367;SDS011;50692;53.314;-6.300;2023-02-19T15:37:47;1.77;;;0.68;;
64367;SDS011;50692;53.314;-6.300;2023-02-19T15:40:33;1.20;;;0.60;;
64367;SDS011;50692;53.314;-6.300;2023-02-19T15:43:22;1.20;;;0.88;;
64367;SDS011;50692;53.314;-6.300;2023-02-19T15:46:14;5.50;;;3.67;;
64367;SDS011;50692;53.314;-6.300;2023-02-19T15:49:12;1.95;;;1.00;;
64367;SDS011;50692;53.314;-6.300;2023-02-19T15:52:09;0.65;;;0.50;;
64367;SDS011;50692;53.314;-6.300;2023-02-19T16:01:36;1.58;;;0.80;;
64367;SDS011;50692;53.314;-6.300;2023-02-19T16:04:23;1.38;;;0.80;;
64367;SDS011;50692;53.314;-6.300;2023-02-19T16:07:25;1.67;;;0.77;;
64367;SDS011;50692;53.314;-6.300;2023-02-19T16:10:21;1.35;;;1.00;;
64367;SDS011;50692;53.314;-6.300;2023-02-19T16:13:10;2.05;;;0.82;;
64367;SDS011;50692;53.314;-6.300;2023-02-19T16:15:57;1.15;;;0.80;;
64367;SDS011;50692;53.314;-6.300;2023-02-19T16:18:52;2.40;;;1.23;;
64367;SDS011;50692;53.314;-6.300;2023-02-19T16:21:39;3.50;;;1.42;;
64367;SDS011;50692;53.314;-6.300;2023-02-19T16:24:34;2.92;;;1.33;;
64367;SDS011;50692;53.314;-6.300;2023-02-19T16:34:01;2.05;;;1.33;;
64367;SDS011;50692;53.314;-6.300;2023-02-19T16:36:34;2.45;;;1.60;;
64367;SDS011;50692;53.314;-6.300;2023-02-19T16:39:22;0.90;;;0.90;;
64367;SDS011;50692;53.314;-6.300;2023-02-19T16:42:11;1.23;;;1.05;;
64367;SDS011;50692;53.314;-6.300;2023-02-19T16:44:58;1.85;;;1.50;;
64367;SDS011;50692;53.314;-6.300;2023-02-19T16:47:44;2.08;;;1.40;;
64367;SDS011;50692;53.314;-6.300;2023-02-19T16:50:35;1.65;;;1.25;;
64367;SDS011;50692;53.314;-6.300;2023-02-19T16:53:24;2.55;;;1.48;;
64367;SDS011;50692;53.314;-6.300;2023-02-19T16:56:12;3.42;;;1.67;;
64367;SDS011;50692;53.314;-6.300;2023-02-19T16:59:02;2.75;;;1.90;;
64367;SDS011;50692;53.314;-6.300;2023-02-19T17:01:49;5.05;;;2.92;;
64367;SDS011;50692;53.314;-6.300;2023-02-19T17:04:34;2.75;;;1.80;;
64367;SDS011;50692;53.314;-6.300;2023-02-19T17:07:20;2.83;;;1.70;;
64367;SDS011;50692;53.314;-6.300;2023-02-19T17:10:07;2.28;;;1.75;;
64367;SDS011;50692;53.314;-6.300;2023-02-19T17:12:54;2.30;;;1.67;;
64367;SDS011;50692;53.314;-6.300;2023-02-19T17:15:40;2.03;;;1.25;;
64367;SDS011;50692;53.314;-6.300;2023-02-19T17:18:26;3.70;;;1.90;;
64367;SDS011;50692;53.314;-6.300;2023-02-19T17:21:13;2.42;;;1.90;;
64367;SDS011;50692;53.314;-6.300;2023-02-19T17:24:07;2.78;;;2.00;;
64367;SDS011;50692;53.314;-6.300;2023-02-19T17:26:53;1.40;;;1.30;;
64367;SDS011;50692;53.314;-6.300;2023-02-19T17:29:39;2.30;;;1.50;;
64367;SDS011;50692;53.314;-6.300;2023-02-19T17:32:25;2.15;;;1.70;;
64367;SDS011;50692;53.314;-6.300;2023-02-19T17:35:11;3.40;;;1.70;;
64367;SDS011;50692;53.314;-6.300;2023-02-19T17:37:57;3.17;;;1.83;;
64367;SDS011;50692;53.314;-6.300;2023-02-19T17:40:43;4.13;;;2.47;;
64367;SDS011;50692;53.314;-6.300;2023-02-19T17:43:29;5.68;;;4.03;;
64367;SDS011;50692;53.314;-6.300;2023-02-19T17:46:19;4.28;;;2.80;;
64367;SDS011;50692;53.314;-6.300;2023-02-19T17:49:08;2.22;;;1.52;;
64367;SDS011;50692;53.314;-6.300;2023-02-19T17:51:56;2.40;;;1.80;;
64367;SDS011;50692;53.314;-6.300;2023-02-19T17:54:43;2.30;;;1.40;;
64367;SDS011;50692;53.314;-6.300;2023-02-19T17:57:29;3.28;;;2.15;;
64367;SDS011;50692;53.314;-6.300;2023-02-19T18:00:19;2.58;;;1.50;;
64367;SDS011;50692;53.314;-6.300;2023-02-19T18:03:12;3.05;;;2.10;;
64367;SDS011;50692;53.314;-6.300;2023-02-19T18:05:58;3.08;;;1.48;;
64367;SDS011;50692;53.314;-6.300;2023-02-19T18:08:45;4.05;;;2.60;;
64367;SDS011;50692;53.314;-6.300;2023-02-19T18:11:32;3.40;;;2.30;;
64367;SDS011;50692;53.314;-6.300;2023-02-19T18:14:18;5.93;;;4.38;;
64367;SDS011;50692;53.314;-6.300;2023-02-19T18:17:04;1.55;;;1.42;;
64367;SDS011;50692;53.314;-6.300;2023-02-19T18:19:50;2.67;;;2.00;;
64367;SDS011;50692;53.314;-6.300;2023-02-19T18:22:38;2.70;;;1.80;;
64367;SDS011;50692;53.314;-6.300;2023-02-19T18:25:25;1.85;;;1.58;;
64367;SDS011;50692;53.314;-6.300;2023-02-19T18:28:11;4.45;;;2.00;;
64367;SDS011;50692;53.314;-6.300;2023-02-19T18:30:57;2.97;;;1.80;;
64367;SDS011;50692;53.314;-6.300;2023-02-19T18:33:43;2.90;;;2.00;;
64367;SDS011;50692;53.314;-6.300;2023-02-19T18:36:29;2.45;;;1.90;;
64367;SDS011;50692;53.314;-6.300;2023-02-19T18:39:15;3.85;;;1.92;;
64367;SDS011;50692;53.314;-6.300;2023-02-19T18:42:01;2.47;;;1.30;;
64367;SDS011;50692;53.314;-6.300;2023-02-19T18:44:47;2.13;;;1.70;;
64367;SDS011;50692;53.314;-6.300;2023-02-19T18:47:34;2.45;;;1.55;;
64367;SDS011;50692;53.314;-6.300;2023-02-19T18:50:20;3.45;;;2.53;;
64367;SDS011;50692;53.314;-6.300;2023-02-19T18:53:06;1.85;;;1.33;;
64367;SDS011;50692;53.314;-6.300;2023-02-19T18:55:52;3.88;;;1.58;;
64367;SDS011;50692;53.314;-6.300;2023-02-19T18:58:38;3.72;;;2.40;;
64367;SDS011;50692;53.314;-6.300;2023-02-19T19:01:23;3.60;;;2.08;;
64367;SDS011;50692;53.314;-6.300;2023-02-19T19:04:09;2.08;;;1.40;;
64367;SDS011;50692;53.314;-6.300;2023-02-19T19:06:55;1.77;;;1.65;;
64367;SDS011;50692;53.314;-6.300;2023-02-19T19:09:41;2.53;;;1.80;;
64367;SDS011;50692;53.314;-6.300;2023-02-19T19:12:27;2.60;;;1.27;;
64367;SDS011;50692;53.314;-6.300;2023-02-19T19:15:13;1.65;;;1.30;;
64367;SDS011;50692;53.314;-6.300;2023-02-19T19:18:00;1.65;;;1.35;;